Aeroporto :
LOGIN :

Iscrizione | Disclaimer

   EN    FR    IT 

 










Sommario :    VFR   VFR Marginale   IFR   IFR Intensivo   IFR Molto Intensivo
Visibilità : 
Base nubi : 
>= 8 km
>= 3000ft
5 / 8 km
1000 / 3000 ft
1500m / 5 km
500 / 1000 ft
800 / 1500m
200 / 500 ft
< 800m
< 200 ft
Simboli :   Temporali  Nebbia  Neve Forte  Precipitazioni Forti  Vento > 20 kt
SIGMETs :   Varie  Temporali  Ghiacco  Turbolenza  Onda orograficha  Ceneri Vulcaniche






- Altitudine del aeroporto : 1411 ft
- Codice IATA : SZG


LOWS - Salzburg

ULTIMO METAR :
  • 131650Z 16005KT 9000 -SHRA FEW001 SCT009 BKN018 01/00 Q1007 TEMPO BKN012

METARs OBSOLETI :
  • 131620Z 17006KT 9000 FEW001 SCT028 BKN050 00/00 Q1007 NOSIG
  • 131550Z 15005KT 7000 FEW001 BKN016 BKN038 00/00 Q1006 NOSIG
  • 131520Z 17005KT 6000 -RA FEW001 SCT009 BKN013 01/00 Q1006 TEMPO SCT002 BKN020
  • 131450Z VRB02KT 6000 -RASN FEW002 SCT009 BKN013 01/00 Q1006 TEMPO BKN020
  • 131420Z 16003KT 4500 -RASN FEW002 SCT009 BKN013 00/00 Q1005 NOSIG

TAF TAF LOWS
Valido dal 13 a 12 ore il 14 a 12 ore UTC


131115Z 1312/1412 VRB02KT 9999 -RA FEW005 BKN015 TX06/1412Z TNM04/1405Z
TEMPO 1312/1317 4000 -RASN BKN009
BECMG 1317/1319 15006KT NSW
BECMG 1319/1321 CAVOK
PROB30
TEMPO 1321/1408 VRB01KT 0300 FZFG VV003
BECMG 1408/1410 34005KT
PROB30
TEMPO 1408/1412 2500 BR BKN008



MetMap, La meteo Aeronautica in un colpo d'occhio ! - Copyright ORBIFLY Dicembre 2007 - Disclaimer

ORBIFLY MET'MAP TEAM :

Programmazione e sviluppo : Alexandra Zaïnal
Concezione e sviluppo : Baudouin d'Aumeries
Co-Programmazione e sviluppo : Marc-Olivier Méhu
Supporto tecnico e logistico : Manuel Goepfert
Aiuto per la traduzione : Arnaldo La Scala

Contatto : metmap@orbifly.com




FONTI E CREDITI :

   NOAA